sensor_id;sensor_type;location;lat;lon;timestamp;pressure;altitude;pressure_sealevel;temperature;humidity
48624;BME280;34422;45.802;16.114;2022-12-10T00:01:19;98643.91;;;6.58;100.00
48624;BME280;34422;45.802;16.114;2022-12-10T00:03:46;98638.31;;;6.59;100.00
48624;BME280;34422;45.802;16.114;2022-12-10T00:06:16;98647.91;;;6.55;100.00
48624;BME280;34422;45.802;16.114;2022-12-10T00:08:44;98650.72;;;6.60;100.00
48624;BME280;34422;45.802;16.114;2022-12-10T00:11:12;98645.34;;;6.60;100.00
48624;BME280;34422;45.802;16.114;2022-12-10T00:13:40;98646.53;;;6.64;100.00
48624;BME280;34422;45.802;16.114;2022-12-10T00:16:09;98648.19;;;6.65;100.00
48624;BME280;34422;45.802;16.114;2022-12-10T00:18:37;98660.91;;;6.70;100.00
48624;BME280;34422;45.802;16.114;2022-12-10T00:21:13;98654.75;;;6.69;100.00
48624;BME280;34422;45.802;16.114;2022-12-10T00:23:40;98647.72;;;6.68;100.00
48624;BME280;34422;45.802;16.114;2022-12-10T00:26:18;98646.53;;;6.64;100.00
48624;BME280;34422;45.802;16.114;2022-12-10T00:28:46;98661.41;;;6.67;100.00
48624;BME280;34422;45.802;16.114;2022-12-10T00:31:18;98660.56;;;6.66;100.00
48624;BME280;34422;45.802;16.114;2022-12-10T00:33:46;98658.72;;;6.67;100.00
48624;BME280;34422;45.802;16.114;2022-12-10T00:36:25;98661.84;;;6.64;100.00
48624;BME280;34422;45.802;16.114;2022-12-10T00:38:52;98677.16;;;6.63;100.00
48624;BME280;34422;45.802;16.114;2022-12-10T00:41:19;98670.94;;;6.63;100.00
48624;BME280;34422;45.802;16.114;2022-12-10T00:43:46;98687.91;;;6.63;100.00
48624;BME280;34422;45.802;16.114;2022-12-10T00:46:14;98669.69;;;6.65;100.00
48624;BME280;34422;45.802;16.114;2022-12-10T00:48:42;98692.22;;;6.64;100.00
48624;BME280;34422;45.802;16.114;2022-12-10T00:51:15;98704.63;;;6.65;100.00
48624;BME280;34422;45.802;16.114;2022-12-10T00:53:43;98706.47;;;6.65;100.00
48624;BME280;34422;45.802;16.114;2022-12-10T00:56:12;98723.44;;;6.65;100.00
48624;BME280;34422;45.802;16.114;2022-12-10T00:58:40;98711.63;;;6.66;100.00
48624;BME280;34422;45.802;16.114;2022-12-10T01:01:16;98715.59;;;6.64;100.00
48624;BME280;34422;45.802;16.114;2022-12-10T01:03:44;98712.81;;;6.70;100.00
48624;BME280;34422;45.802;16.114;2022-12-10T01:06:14;98699.97;;;6.72;100.00
48624;BME280;34422;45.802;16.114;2022-12-10T01:08:42;98687.56;;;6.71;100.00
48624;BME280;34422;45.802;16.114;2022-12-10T01:11:10;98703.34;;;6.68;100.00
48624;BME280;34422;45.802;16.114;2022-12-10T01:13:38;98704.75;;;6.70;100.00
48624;BME280;34422;45.802;16.114;2022-12-10T01:16:07;98716.78;;;6.68;100.00
48624;BME280;34422;45.802;16.114;2022-12-10T01:18:34;98721.34;;;6.67;100.00
48624;BME280;34422;45.802;16.114;2022-12-10T01:21:07;98716.31;;;6.71;100.00
48624;BME280;34422;45.802;16.114;2022-12-10T01:23:36;98718.34;;;6.75;100.00
48624;BME280;34422;45.802;16.114;2022-12-10T01:26:06;98716.56;;;6.69;100.00
48624;BME280;34422;45.802;16.114;2022-12-10T01:28:35;98708.03;;;6.72;100.00
48624;BME280;34422;45.802;16.114;2022-12-10T01:31:11;98716.31;;;6.71;100.00
48624;BME280;34422;45.802;16.114;2022-12-10T01:33:39;98717.13;;;6.71;100.00
48624;BME280;34422;45.802;16.114;2022-12-10T01:36:13;98721.94;;;6.69;100.00
48624;BME280;34422;45.802;16.114;2022-12-10T01:38:40;98719.59;;;6.73;100.00
48624;BME280;34422;45.802;16.114;2022-12-10T01:41:14;98718.78;;;6.72;100.00
48624;BME280;34422;45.802;16.114;2022-12-10T01:43:59;98721.03;;;6.75;100.00
48624;BME280;34422;45.802;16.114;2022-12-10T01:46:41;98700.56;;;6.74;100.00
48624;BME280;34422;45.802;16.114;2022-12-10T01:49:12;98703.13;;;6.69;100.00
48624;BME280;34422;45.802;16.114;2022-12-10T01:51:41;98705.44;;;6.66;100.00
48624;BME280;34422;45.802;16.114;2022-12-10T01:54:12;98697.38;;;6.66;100.00
48624;BME280;34422;45.802;16.114;2022-12-10T01:56:44;98686.53;;;6.72;100.00
48624;BME280;34422;45.802;16.114;2022-12-10T01:59:12;98688.78;;;6.75;100.00
48624;BME280;34422;45.802;16.114;2022-12-10T02:01:53;98702.66;;;6.72;100.00
48624;BME280;34422;45.802;16.114;2022-12-10T02:04:35;98718.72;;;6.79;100.00
48624;BME280;34422;45.802;16.114;2022-12-10T02:07:13;98711.47;;;6.80;100.00
48624;BME280;34422;45.802;16.114;2022-12-10T02:12:34;98685.19;;;6.82;100.00
48624;BME280;34422;45.802;16.114;2022-12-10T02:15:12;98667.75;;;6.84;100.00
48624;BME280;34422;45.802;16.114;2022-12-10T02:17:47;98664.50;;;6.82;100.00
48624;BME280;34422;45.802;16.114;2022-12-10T02:20:31;98659.56;;;6.79;100.00
48624;BME280;34422;45.802;16.114;2022-12-10T02:23:11;98663.91;;;6.80;100.00
48624;BME280;34422;45.802;16.114;2022-12-10T02:25:54;98663.69;;;6.82;100.00
48624;BME280;34422;45.802;16.114;2022-12-10T02:31:00;98680.16;;;6.85;100.00
48624;BME280;34422;45.802;16.114;2022-12-10T02:33:29;98684.72;;;6.85;100.00
48624;BME280;34422;45.802;16.114;2022-12-10T02:35:58;98678.28;;;6.86;100.00
48624;BME280;34422;45.802;16.114;2022-12-10T02:38:29;98679.00;;;6.81;100.00
48624;BME280;34422;45.802;16.114;2022-12-10T02:40:58;98681.91;;;6.80;100.00
48624;BME280;34422;45.802;16.114;2022-12-10T02:43:27;98686.97;;;6.88;100.00
48624;BME280;34422;45.802;16.114;2022-12-10T02:45:57;98695.03;;;6.88;100.00
48624;BME280;34422;45.802;16.114;2022-12-10T02:48:25;98689.66;;;6.88;100.00
48624;BME280;34422;45.802;16.114;2022-12-10T02:50:53;98692.34;;;6.88;100.00
48624;BME280;34422;45.802;16.114;2022-12-10T02:53:19;98695.47;;;6.85;100.00
48624;BME280;34422;45.802;16.114;2022-12-10T03:04:57;98719.38;;;6.93;100.00
48624;BME280;34422;45.802;16.114;2022-12-10T03:07:31;98719.38;;;6.93;100.00
48624;BME280;34422;45.802;16.114;2022-12-10T03:10:12;98730.13;;;6.93;100.00
48624;BME280;34422;45.802;16.114;2022-12-10T03:12:48;98729.69;;;6.96;100.00
48624;BME280;34422;45.802;16.114;2022-12-10T03:15:18;98728.63;;;6.97;100.00
48624;BME280;34422;45.802;16.114;2022-12-10T03:17:47;98724.44;;;7.01;100.00
48624;BME280;34422;45.802;16.114;2022-12-10T03:20:16;98727.56;;;6.98;100.00
48624;BME280;34422;45.802;16.114;2022-12-10T03:22:45;98725.47;;;7.00;100.00
48624;BME280;34422;45.802;16.114;2022-12-10T03:25:17;98723.81;;;6.99;100.00
48624;BME280;34422;45.802;16.114;2022-12-10T03:27:48;98738.31;;;6.98;100.00
48624;BME280;34422;45.802;16.114;2022-12-10T03:30:16;98745.34;;;6.99;100.00
48624;BME280;34422;45.802;16.114;2022-12-10T03:32:44;98748.84;;;6.99;100.00
48624;BME280;34422;45.802;16.114;2022-12-10T03:35:12;98748.63;;;7.01;100.00
48624;BME280;34422;45.802;16.114;2022-12-10T03:37:40;98746.16;;;6.99;100.00
48624;BME280;34422;45.802;16.114;2022-12-10T03:40:08;98764.75;;;7.01;100.00
48624;BME280;34422;45.802;16.114;2022-12-10T03:42:37;98768.50;;;7.00;100.00
48624;BME280;34422;45.802;16.114;2022-12-10T03:45:04;98750.72;;;6.99;100.00
48624;BME280;34422;45.802;16.114;2022-12-10T03:47:32;98747.91;;;6.94;100.00
48624;BME280;34422;45.802;16.114;2022-12-10T03:49:59;98738.03;;;6.88;100.00
48624;BME280;34422;45.802;16.114;2022-12-10T03:52:26;98744.69;;;6.85;100.00
48624;BME280;34422;45.802;16.114;2022-12-10T03:54:52;98744.34;;;6.82;100.00
48624;BME280;34422;45.802;16.114;2022-12-10T03:57:21;98740.22;;;6.79;100.00
48624;BME280;34422;45.802;16.114;2022-12-10T03:59:48;98733.25;;;6.71;100.00
48624;BME280;34422;45.802;16.114;2022-12-10T04:02:14;98744.50;;;6.68;100.00
48624;BME280;34422;45.802;16.114;2022-12-10T04:04:41;98739.56;;;6.65;100.00
48624;BME280;34422;45.802;16.114;2022-12-10T04:07:08;98740.00;;;6.62;100.00
48624;BME280;34422;45.802;16.114;2022-12-10T04:09:35;98734.63;;;6.62;100.00
48624;BME280;34422;45.802;16.114;2022-12-10T04:12:03;98730.97;;;6.57;100.00
48624;BME280;34422;45.802;16.114;2022-12-10T04:14:30;98741.34;;;6.53;100.00
48624;BME280;34422;45.802;16.114;2022-12-10T04:17:15;98743.44;;;6.51;100.00
48624;BME280;34422;45.802;16.114;2022-12-10T04:19:42;98744.91;;;6.47;100.00
48624;BME280;34422;45.802;16.114;2022-12-10T04:22:09;98755.28;;;6.43;100.00
48624;BME280;34422;45.802;16.114;2022-12-10T04:24:55;98753.88;;;6.41;100.00
48624;BME280;34422;45.802;16.114;2022-12-10T04:27:41;98760.31;;;6.40;100.00
48624;BME280;34422;45.802;16.114;2022-12-10T04:30:10;98767.16;;;6.36;100.00
48624;BME280;34422;45.802;16.114;2022-12-10T04:32:37;98764.47;;;6.36;100.00
48624;BME280;34422;45.802;16.114;2022-12-10T04:35:04;98755.50;;;6.24;100.00
48624;BME280;34422;45.802;16.114;2022-12-10T04:37:32;98772.66;;;6.23;100.00
48624;BME280;34422;45.802;16.114;2022-12-10T04:39:59;98777.84;;;6.18;100.00
48624;BME280;34422;45.802;16.114;2022-12-10T04:42:26;98761.59;;;6.13;100.00
48624;BME280;34422;45.802;16.114;2022-12-10T04:44:52;98763.72;;;6.04;100.00
48624;BME280;34422;45.802;16.114;2022-12-10T04:47:19;98773.22;;;6.06;100.00
48624;BME280;34422;45.802;16.114;2022-12-10T04:49:46;98779.00;;;6.03;100.00
48624;BME280;34422;45.802;16.114;2022-12-10T04:52:15;98780.06;;;6.02;100.00
48624;BME280;34422;45.802;16.114;2022-12-10T04:54:43;98785.41;;;6.02;100.00
48624;BME280;34422;45.802;16.114;2022-12-10T04:57:10;98783.19;;;5.99;100.00
48624;BME280;34422;45.802;16.114;2022-12-10T04:59:38;98781.56;;;5.98;100.00
48624;BME280;34422;45.802;16.114;2022-12-10T05:02:05;98780.34;;;5.94;100.00
48624;BME280;34422;45.802;16.114;2022-12-10T05:04:32;98774.78;;;5.89;100.00
48624;BME280;34422;45.802;16.114;2022-12-10T05:06:59;98781.81;;;5.90;100.00
48624;BME280;34422;45.802;16.114;2022-12-10T05:09:25;98776.66;;;5.89;100.00
48624;BME280;34422;45.802;16.114;2022-12-10T05:11:52;98786.34;;;5.90;100.00
48624;BME280;34422;45.802;16.114;2022-12-10T05:14:19;98785.53;;;5.89;100.00
48624;BME280;34422;45.802;16.114;2022-12-10T05:16:49;98784.94;;;5.87;100.00
48624;BME280;34422;45.802;16.114;2022-12-10T05:19:16;98791.94;;;5.88;100.00
48624;BME280;34422;45.802;16.114;2022-12-10T05:21:46;98797.31;;;5.88;100.00
48624;BME280;34422;45.802;16.114;2022-12-10T05:24:31;98803.09;;;5.85;100.00
48624;BME280;34422;45.802;16.114;2022-12-10T05:26:58;98795.66;;;5.87;100.00
48624;BME280;34422;45.802;16.114;2022-12-10T05:29:25;98781.03;;;5.83;100.00
48624;BME280;34422;45.802;16.114;2022-12-10T05:31:52;98778.78;;;5.80;100.00
48624;BME280;34422;45.802;16.114;2022-12-10T05:34:19;98786.81;;;5.80;100.00
48624;BME280;34422;45.802;16.114;2022-12-10T05:36:45;98775.91;;;5.75;100.00
48624;BME280;34422;45.802;16.114;2022-12-10T05:39:12;98790.16;;;5.76;100.00
48624;BME280;34422;45.802;16.114;2022-12-10T05:41:40;98788.47;;;5.81;100.00
48624;BME280;34422;45.802;16.114;2022-12-10T05:44:09;98790.31;;;5.81;100.00
48624;BME280;34422;45.802;16.114;2022-12-10T05:46:36;98796.13;;;5.78;100.00
48624;BME280;34422;45.802;16.114;2022-12-10T05:49:05;98799.03;;;5.76;100.00
48624;BME280;34422;45.802;16.114;2022-12-10T05:51:35;98795.72;;;5.74;100.00
48624;BME280;34422;45.802;16.114;2022-12-10T05:54:04;98804.38;;;5.76;100.00
48624;BME280;34422;45.802;16.114;2022-12-10T05:56:31;98805.66;;;5.74;100.00
48624;BME280;34422;45.802;16.114;2022-12-10T05:59:00;98808.56;;;5.72;100.00
48624;BME280;34422;45.802;16.114;2022-12-10T06:01:34;98806.91;;;5.71;100.00
48624;BME280;34422;45.802;16.114;2022-12-10T06:04:02;98803.78;;;5.74;100.00
48624;BME280;34422;45.802;16.114;2022-12-10T06:06:33;98815.59;;;5.73;100.00
48624;BME280;34422;45.802;16.114;2022-12-10T06:09:01;98813.72;;;5.74;100.00
48624;BME280;34422;45.802;16.114;2022-12-10T06:11:28;98799.47;;;5.73;100.00
48624;BME280;34422;45.802;16.114;2022-12-10T06:13:56;98803.63;;;5.69;100.00
48624;BME280;34422;45.802;16.114;2022-12-10T06:16:25;98819.72;;;5.69;100.00
48624;BME280;34422;45.802;16.114;2022-12-10T06:18:52;98814.34;;;5.69;100.00
48624;BME280;34422;45.802;16.114;2022-12-10T06:21:20;98809.81;;;5.69;100.00
48624;BME280;34422;45.802;16.114;2022-12-10T06:23:49;98798.25;;;5.69;100.00
48624;BME280;34422;45.802;16.114;2022-12-10T06:26:21;98808.56;;;5.72;100.00
48624;BME280;34422;45.802;16.114;2022-12-10T06:28:49;98807.75;;;5.71;100.00
48624;BME280;34422;45.802;16.114;2022-12-10T06:31:16;98798.69;;;5.66;100.00
48624;BME280;34422;45.802;16.114;2022-12-10T06:33:43;98786.31;;;5.65;100.00
48624;BME280;34422;45.802;16.114;2022-12-10T06:36:12;98791.66;;;5.65;100.00
48624;BME280;34422;45.802;16.114;2022-12-10T06:38:39;98798.91;;;5.64;100.00
48624;BME280;34422;45.802;16.114;2022-12-10T06:41:07;98790.44;;;5.61;100.00
48624;BME280;34422;45.802;16.114;2022-12-10T06:43:36;98801.19;;;5.61;100.00
48624;BME280;34422;45.802;16.114;2022-12-10T06:46:07;98802.84;;;5.62;100.00
48624;BME280;34422;45.802;16.114;2022-12-10T06:48:35;98815.66;;;5.60;100.00
48624;BME280;34422;45.802;16.114;2022-12-10T06:51:03;98816.09;;;5.57;100.00
48624;BME280;34422;45.802;16.114;2022-12-10T06:53:31;98815.69;;;5.53;100.00
48624;BME280;34422;45.802;16.114;2022-12-10T06:56:00;98827.66;;;5.51;100.00
48624;BME280;34422;45.802;16.114;2022-12-10T06:58:28;98840.66;;;5.54;100.00
48624;BME280;34422;45.802;16.114;2022-12-10T07:01:06;98846.28;;;5.46;100.00
48624;BME280;34422;45.802;16.114;2022-12-10T07:03:33;98844.19;;;5.48;100.00
48624;BME280;34422;45.802;16.114;2022-12-10T07:06:01;98833.09;;;5.44;100.00
48624;BME280;34422;45.802;16.114;2022-12-10T07:08:28;98834.75;;;5.39;100.00
48624;BME280;34422;45.802;16.114;2022-12-10T07:10:56;98835.78;;;5.38;100.00
48624;BME280;34422;45.802;16.114;2022-12-10T07:13:23;98845.91;;;5.35;100.00
48624;BME280;34422;45.802;16.114;2022-12-10T07:15:51;98844.25;;;5.34;100.00
48624;BME280;34422;45.802;16.114;2022-12-10T07:18:17;98829.81;;;5.35;100.00
48624;BME280;34422;45.802;16.114;2022-12-10T07:20:45;98819.75;;;5.31;100.00
48624;BME280;34422;45.802;16.114;2022-12-10T07:23:11;98828.16;;;5.34;100.00
48624;BME280;34422;45.802;16.114;2022-12-10T07:25:38;98820.31;;;5.33;100.00
48624;BME280;34422;45.802;16.114;2022-12-10T07:28:05;98825.75;;;5.26;100.00
48624;BME280;34422;45.802;16.114;2022-12-10T07:30:32;98827.81;;;5.24;100.00
48624;BME280;34422;45.802;16.114;2022-12-10T07:32:59;98827.38;;;5.27;100.00
48624;BME280;34422;45.802;16.114;2022-12-10T07:35:26;98825.31;;;5.29;100.00
48624;BME280;34422;45.802;16.114;2022-12-10T07:37:53;98819.94;;;5.29;100.00
48624;BME280;34422;45.802;16.114;2022-12-10T07:40:20;98817.06;;;5.24;100.00
48624;BME280;34422;45.802;16.114;2022-12-10T07:42:47;98812.53;;;5.25;100.00
48624;BME280;34422;45.802;16.114;2022-12-10T07:45:13;98812.13;;;5.21;100.00
48624;BME280;34422;45.802;16.114;2022-12-10T07:47:40;98816.91;;;5.19;100.00
48624;BME280;34422;45.802;16.114;2022-12-10T07:50:07;98813.84;;;5.16;100.00
48624;BME280;34422;45.802;16.114;2022-12-10T07:52:34;98830.31;;;5.19;100.00
48624;BME280;34422;45.802;16.114;2022-12-10T07:55:01;98827.25;;;5.09;100.00
48624;BME280;34422;45.802;16.114;2022-12-10T07:57:28;98824.56;;;5.16;100.00
48624;BME280;34422;45.802;16.114;2022-12-10T07:59:56;98823.72;;;5.15;100.00
48624;BME280;34422;45.802;16.114;2022-12-10T08:02:24;98824.41;;;5.04;100.00
48624;BME280;34422;45.802;16.114;2022-12-10T08:04:51;98822.91;;;5.08;100.00
48624;BME280;34422;45.802;16.114;2022-12-10T08:07:18;98817.19;;;5.05;100.00
48624;BME280;34422;45.802;16.114;2022-12-10T08:09:45;98832.44;;;5.04;100.00
48624;BME280;34422;45.802;16.114;2022-12-10T08:12:12;98847.25;;;5.13;100.00
48624;BME280;34422;45.802;16.114;2022-12-10T08:14:39;98827.81;;;5.24;100.00
48624;BME280;34422;45.802;16.114;2022-12-10T08:17:05;98840.59;;;5.22;100.00
48624;BME280;34422;45.802;16.114;2022-12-10T08:19:32;98856.38;;;4.99;100.00
48624;BME280;34422;45.802;16.114;2022-12-10T08:21:59;98870.38;;;5.01;100.00
48624;BME280;34422;45.802;16.114;2022-12-10T08:24:26;98867.50;;;4.96;100.00
48624;BME280;34422;45.802;16.114;2022-12-10T08:26:53;98871.22;;;4.95;100.00
48624;BME280;34422;45.802;16.114;2022-12-10T08:29:19;98872.88;;;4.96;100.00
48624;BME280;34422;45.802;16.114;2022-12-10T08:31:47;98874.34;;;4.92;100.00
48624;BME280;34422;45.802;16.114;2022-12-10T08:34:16;98854.34;;;4.88;100.00
48624;BME280;34422;45.802;16.114;2022-12-10T08:36:44;98857.66;;;4.90;100.00
48624;BME280;34422;45.802;16.114;2022-12-10T08:39:11;98858.69;;;4.89;100.00
48624;BME280;34422;45.802;16.114;2022-12-10T08:41:43;98856.00;;;4.89;100.00
48624;BME280;34422;45.802;16.114;2022-12-10T08:44:11;98860.75;;;4.87;100.00
48624;BME280;34422;45.802;16.114;2022-12-10T08:46:38;98862.19;;;4.83;100.00
48624;BME280;34422;45.802;16.114;2022-12-10T08:49:05;98859.75;;;4.75;100.00
48624;BME280;34422;45.802;16.114;2022-12-10T08:51:33;98863.88;;;4.71;100.00
48624;BME280;34422;45.802;16.114;2022-12-10T08:54:00;98858.91;;;4.68;100.00
48624;BME280;34422;45.802;16.114;2022-12-10T08:56:26;98857.69;;;4.57;100.00
48624;BME280;34422;45.802;16.114;2022-12-10T08:58:53;98852.53;;;4.55;100.00
48624;BME280;34422;45.802;16.114;2022-12-10T09:01:20;98857.91;;;4.55;100.00
48624;BME280;34422;45.802;16.114;2022-12-10T09:03:47;98875.00;;;4.54;100.00
48624;BME280;34422;45.802;16.114;2022-12-10T09:06:16;98868.84;;;4.47;100.00
48624;BME280;34422;45.802;16.114;2022-12-10T09:08:44;98874.59;;;4.44;100.00
48624;BME280;34422;45.802;16.114;2022-12-10T09:11:17;98887.19;;;4.44;100.00
48624;BME280;34422;45.802;16.114;2022-12-10T09:13:44;98879.97;;;4.44;100.00
48624;BME280;34422;45.802;16.114;2022-12-10T09:16:11;98885.72;;;4.41;100.00
48624;BME280;34422;45.802;16.114;2022-12-10T09:18:38;98891.09;;;4.41;100.00
48624;BME280;34422;45.802;16.114;2022-12-10T09:21:06;98893.16;;;4.39;100.00
48624;BME280;34422;45.802;16.114;2022-12-10T09:23:34;98895.84;;;4.33;100.00
48624;BME280;34422;45.802;16.114;2022-12-10T09:26:01;98903.25;;;4.37;100.00
48624;BME280;34422;45.802;16.114;2022-12-10T09:28:31;98909.22;;;4.39;100.00
48624;BME280;34422;45.802;16.114;2022-12-10T09:30:59;98913.75;;;4.25;100.00
48624;BME280;34422;45.802;16.114;2022-12-10T09:33:27;98901.59;;;4.29;100.00
48624;BME280;34422;45.802;16.114;2022-12-10T09:35:54;98889.88;;;4.37;100.00
48624;BME280;34422;45.802;16.114;2022-12-10T09:38:21;98885.75;;;4.35;100.00
48624;BME280;34422;45.802;16.114;2022-12-10T09:40:56;98867.22;;;4.33;100.00
48624;BME280;34422;45.802;16.114;2022-12-10T09:43:38;98861.44;;;4.36;100.00
48624;BME280;34422;45.802;16.114;2022-12-10T09:46:23;98840.44;;;4.33;100.00
48624;BME280;34422;45.802;16.114;2022-12-10T09:49:11;98836.31;;;4.31;100.00
48624;BME280;34422;45.802;16.114;2022-12-10T09:51:43;98823.53;;;4.26;100.00
48624;BME280;34422;45.802;16.114;2022-12-10T09:54:26;98817.38;;;4.19;100.00
48624;BME280;34422;45.802;16.114;2022-12-10T09:56:55;98813.03;;;4.24;100.00
48624;BME280;34422;45.802;16.114;2022-12-10T09:59:46;98813.25;;;4.10;100.00
48624;BME280;34422;45.802;16.114;2022-12-10T10:02:24;98811.63;;;4.09;100.00
48624;BME280;34422;45.802;16.114;2022-12-10T10:04:56;98808.94;;;4.09;100.00
48624;BME280;34422;45.802;16.114;2022-12-10T10:07:26;98801.94;;;4.08;100.00
48624;BME280;34422;45.802;16.114;2022-12-10T10:10:03;98798.22;;;4.09;100.00
48624;BME280;34422;45.802;16.114;2022-12-10T10:12:31;98793.91;;;4.08;100.00
48624;BME280;34422;45.802;16.114;2022-12-10T10:15:12;98781.16;;;4.10;100.00
48624;BME280;34422;45.802;16.114;2022-12-10T10:17:39;98778.06;;;4.06;100.00
48624;BME280;34422;45.802;16.114;2022-12-10T10:20:13;98784.44;;;4.05;100.00
48624;BME280;34422;45.802;16.114;2022-12-10T10:22:40;98784.63;;;4.04;100.00
48624;BME280;34422;45.802;16.114;2022-12-10T10:25:16;98780.94;;;4.05;100.00
48624;BME280;34422;45.802;16.114;2022-12-10T10:27:44;98780.31;;;4.03;100.00
48624;BME280;34422;45.802;16.114;2022-12-10T10:30:20;98766.94;;;4.03;100.00
48624;BME280;34422;45.802;16.114;2022-12-10T10:32:52;98762.19;;;4.05;100.00
48624;BME280;34422;45.802;16.114;2022-12-10T10:35:26;98765.09;;;4.10;100.00
48624;BME280;34422;45.802;16.114;2022-12-10T10:38:00;98765.91;;;4.04;100.00
48624;BME280;34422;45.802;16.114;2022-12-10T10:40:38;98774.56;;;4.06;100.00
48624;BME280;34422;45.802;16.114;2022-12-10T10:43:14;98775.16;;;4.08;100.00
48624;BME280;34422;45.802;16.114;2022-12-10T10:45:43;98774.56;;;4.06;100.00
48624;BME280;34422;45.802;16.114;2022-12-10T10:48:21;98779.06;;;4.05;100.00
48624;BME280;34422;45.802;16.114;2022-12-10T10:50:53;98779.06;;;4.05;100.00
48624;BME280;34422;45.802;16.114;2022-12-10T10:53:26;98767.53;;;4.05;100.00
48624;BME280;34422;45.802;16.114;2022-12-10T10:56:01;98764.25;;;4.03;100.00
48624;BME280;34422;45.802;16.114;2022-12-10T10:58:31;98769.41;;;4.04;100.00
48624;BME280;34422;45.802;16.114;2022-12-10T11:01:04;98779.47;;;4.02;100.00
48624;BME280;34422;45.802;16.114;2022-12-10T11:03:34;98776.59;;;4.04;100.00
48624;BME280;34422;45.802;16.114;2022-12-10T11:06:06;98787.28;;;4.10;100.00
48624;BME280;34422;45.802;16.114;2022-12-10T11:08:37;98795.56;;;4.09;100.00
48624;BME280;34422;45.802;16.114;2022-12-10T11:11:17;98786.50;;;4.10;100.00
48624;BME280;34422;45.802;16.114;2022-12-10T11:13:45;98787.31;;;4.17;100.00
48624;BME280;34422;45.802;16.114;2022-12-10T11:18:52;98784.00;;;4.15;100.00
48624;BME280;34422;45.802;16.114;2022-12-10T11:21:21;98774.56;;;4.06;100.00
48624;BME280;34422;45.802;16.114;2022-12-10T11:23:52;98774.56;;;4.06;100.00
48624;BME280;34422;45.802;16.114;2022-12-10T11:37:31;98752.28;;;4.18;100.00
48624;BME280;34422;45.802;16.114;2022-12-10T11:40:27;98756.81;;;4.18;100.00
48624;BME280;34422;45.802;16.114;2022-12-10T11:43:33;98747.16;;;4.17;100.00
48624;BME280;34422;45.802;16.114;2022-12-10T11:50:02;98725.72;;;4.17;100.00
48624;BME280;34422;45.802;16.114;2022-12-10T12:01:22;98703.50;;;4.16;100.00
48624;BME280;34422;45.802;16.114;2022-12-10T12:09:20;98689.03;;;4.24;100.00
48624;BME280;34422;45.802;16.114;2022-12-10T12:14:48;98677.31;;;4.25;100.00
48624;BME280;34422;45.802;16.114;2022-12-10T12:17:18;98676.50;;;4.18;100.00
48624;BME280;34422;45.802;16.114;2022-12-10T12:19:50;98673.22;;;4.16;100.00
48624;BME280;34422;45.802;16.114;2022-12-10T12:22:34;98667.66;;;4.11;100.00
48624;BME280;34422;45.802;16.114;2022-12-10T12:25:10;98672.84;;;4.06;100.00
48624;BME280;34422;45.802;16.114;2022-12-10T12:27:51;98671.41;;;4.10;100.00
48624;BME280;34422;45.802;16.114;2022-12-10T12:30:20;98674.88;;;4.10;100.00
48624;BME280;34422;45.802;16.114;2022-12-10T12:35:42;98674.50;;;4.07;100.00
48624;BME280;34422;45.802;16.114;2022-12-10T12:43:40;98656.38;;;4.09;100.00
48624;BME280;34422;45.802;16.114;2022-12-10T12:46:16;98653.88;;;4.14;100.00
48624;BME280;34422;45.802;16.114;2022-12-10T12:49:02;98639.88;;;4.12;100.00
48624;BME280;34422;45.802;16.114;2022-12-10T12:51:40;98636.41;;;4.05;100.00
48624;BME280;34422;45.802;16.114;2022-12-10T12:54:11;98647.91;;;4.12;100.00
48624;BME280;34422;45.802;16.114;2022-12-10T12:57:01;98644.19;;;4.13;100.00
48624;BME280;34422;45.802;16.114;2022-12-10T12:59:36;98643.97;;;4.14;100.00
48624;BME280;34422;45.802;16.114;2022-12-10T13:05:01;98653.03;;;4.20;100.00
48624;BME280;34422;45.802;16.114;2022-12-10T13:07:34;98656.31;;;4.22;100.00
48624;BME280;34422;45.802;16.114;2022-12-10T13:15:20;98671.94;;;4.25;100.00
48624;BME280;34422;45.802;16.114;2022-12-10T13:23:31;98691.72;;;4.24;100.00
48624;BME280;34422;45.802;16.114;2022-12-10T13:26:01;98696.44;;;4.28;100.00
48624;BME280;34422;45.802;16.114;2022-12-10T13:36:21;98698.72;;;4.25;100.00
48624;BME280;34422;45.802;16.114;2022-12-10T13:39:22;98700.81;;;4.23;100.00
48624;BME280;34422;45.802;16.114;2022-12-10T13:45:05;98698.34;;;4.15;100.00
48624;BME280;34422;45.802;16.114;2022-12-10T13:50:05;98688.88;;;4.19;100.00
48624;BME280;34422;45.802;16.114;2022-12-10T14:01:05;98678.97;;;4.13;100.00
48624;BME280;34422;45.802;16.114;2022-12-10T14:06:26;98682.28;;;4.15;100.00
48624;BME280;34422;45.802;16.114;2022-12-10T14:09:04;98684.34;;;4.13;100.00
48624;BME280;34422;45.802;16.114;2022-12-10T14:11:35;98674.25;;;4.15;100.00
48624;BME280;34422;45.802;16.114;2022-12-10T14:14:05;98669.31;;;4.12;100.00
48624;BME280;34422;45.802;16.114;2022-12-10T14:16:34;98667.88;;;4.16;100.00
48624;BME280;34422;45.802;16.114;2022-12-10T14:19:07;98672.59;;;4.14;100.00
48624;BME280;34422;45.802;16.114;2022-12-10T14:21:40;98665.81;;;4.11;100.00
48624;BME280;34422;45.802;16.114;2022-12-10T14:27:05;98669.50;;;4.17;100.00
48624;BME280;34422;45.802;16.114;2022-12-10T14:29:35;98660.88;;;4.15;100.00
48624;BME280;34422;45.802;16.114;2022-12-10T14:32:02;98660.06;;;4.08;100.00
48624;BME280;34422;45.802;16.114;2022-12-10T14:34:29;98666.63;;;4.12;100.00
48624;BME280;34422;45.802;16.114;2022-12-10T14:37:00;98669.75;;;4.09;100.00
48624;BME280;34422;45.802;16.114;2022-12-10T14:39:31;98658.44;;;4.07;100.00
48624;BME280;34422;45.802;16.114;2022-12-10T14:42:02;98649.38;;;4.08;100.00
48624;BME280;34422;45.802;16.114;2022-12-10T14:44:31;98655.13;;;4.05;100.00
48624;BME280;34422;45.802;16.114;2022-12-10T14:47:27;98658.84;;;4.04;100.00